Uvalde Research's Hourly Summary for Tuesday, April 18, 2017
Hour Temp
(f)
RH
(%)
Solar Rad.
(MJ/m2)
Rainfall
(in)
Wind
(mph)
4/18/2017 12:00 AM 63 93 0 0 0.86
4/18/2017 1:00 AM 62 95 0 0 0.72
4/18/2017 2:00 AM 61 96 0 0 1.77
4/18/2017 3:00 AM 60 98 0 0 0.88
4/18/2017 4:00 AM 59 99 0 0 0.47
4/18/2017 5:00 AM 58 99 0 0 0.02
4/18/2017 6:00 AM 57 99 0 0 0
4/18/2017 7:00 AM 58 99 0.08 0 0
4/18/2017 8:00 AM 61 97 0.74 0 0.8
4/18/2017 9:00 AM 67 84 1.43 0 1.53
4/18/2017 10:00 AM 71 78 2.07 0 1.35
4/18/2017 11:00 AM 73 77 2.51 0 1.34
4/18/2017 12:00 PM 74 77 2.28 0 1.91
4/18/2017 1:00 PM 76 72 2.91 0 1.7
4/18/2017 2:00 PM 78 65 2.66 0 1.55
4/18/2017 3:00 PM 80 61 2.61 0 2.36
4/18/2017 4:00 PM 80 59 2.02 0 2.48
4/18/2017 5:00 PM 80 57 1.41 0 2.5
4/18/2017 6:00 PM 80 56 0.82 0 2.65
4/18/2017 7:00 PM 78 60 0.19 0 1.79
4/18/2017 8:00 PM 74 71 0 0 0.46
4/18/2017 9:00 PM 72 73 0 0 1.01
4/18/2017 10:00 PM 70 77 0 0 2.11
4/18/2017 11:00 PM 68 83 0 0 1.57
Data Summary 69 80 21.73 0.00 1.33